Terminal Aerodrome Forecast
Issued by NWS

Home | Current Version | Previous Version | Text Only | Print | Product List | Glossary On
Versions: 1 2 3 4 5 6 7 8 9 10 11 12 13 14 15 16 17 18 19 20 21 22 23 24 25
000
FTUS46 KLOX 161700
TAFSBP
TAF
KSBP 161738Z 1618/1718 00000KT P6SM SCT006
     FM162000 30012KT P6SM SKC
     FM162300 31016G22KT P6SM SKC
     FM170500 VRB03KT P6SM BKN008
     FM170800 30002KT 4SM BR OVC006
     FM171100 00000KT 1SM BR OVC003=

USA.gov is the U.S. government's official web portal to all federal, state and local government web resources and services.